Thursday, October 23, 2014
15:53 UTC
  |  Log In   |  Register Free
Airport Search:

Alpena County Regional Airport
(KAPN)

FAA data valid effective September 18, 2014 - November 13, 2014 (unless otherwise noted).

 
 
 
 
 
 
 
 
 
 
 
 
 
 

Current Aviation Weather for Alpena County Regional Airport (KAPN)

The most recent METAR observation for KAPN was updated at: 1511
METAR Summary (Translated METAR)
KAPN
231454Z AUTO VRB03KT 10SM CLR 06/03 A3023 RMK AO2 SLP245 T00610033 55005
KPZQ
231445Z AUTO 23003KT 10SM CLR 07/04 A3024 RMK AO2
(22.4 nm NW from KAPN)
KOSC
231454Z AUTO 00000KT 10SM CLR 06/03 A3023 RMK AO2 T00690038
(38.3 nm SE from KAPN)
TAF Summary (Translated TAF)
KAPN
231132Z 2312/2412 00000KT P6SM MIFG BKN002 FM231300 14005KT P6SM SKC FM240000 00000KT P6SM BKN250 FM240800 00000KT P6SM BKN120
  Airport Weather Conditions for KAPN

 Current Weather at APN
43° F
Fair
Variable winds at 3.5 mph
APN NOAA Radar

Pressure: 30.23 in
Humidity: 82%
Wind: Variable at 3.5 MPH (3 KT)
Dew Point: 37.9°F
Visibility: 10.00 mi


Airport Weather Forecast for KAPN

Translated METAR and TAF for KAPN
Translated METAR for KAPN (1548 UTC 23 October 2014)
found at http://aviationweather.gov/adds/metars/
 
METAR text: KAPN 231454Z AUTO VRB03KT 10SM CLR 06/03 A3023 RMK AO2 SLP245 T00610033 55005
Conditions at: KAPN (ALPENA , MI, US) observed 1454 UTC 23 October 2014
Temperature: 6.1°C (43°F)
Dewpoint: 3.3°C (38°F) [RH = 82%]
Pressure (altimeter): 30.23 inches Hg (1023.8 mb)
[Sea-level pressure: 1024.5 mb]
Winds: variable direction winds at 3 MPH (3 knots; 1.6 m/s)
Visibility: 10 or more miles (16+ km)
Ceiling: at least 12,000 feet AGL
Clouds: sky clear below 12,000 feet AGL
Weather: automated observation with no human augmentation;
there may or may not be significant weather present at this time
Translated TAF for KAPN
Forecast for: KAPN (ALPENA , MI, US)
TAF Text: KAPN 231206Z 2312/2412 00000KT P6SM MIFG SCT002
Forecast period: 1200 to 1300 UTC 23 October 2014
Forecast type: FROM: standard forecast or significant change
Winds: calm
Visibility: 6 or more miles (10+ km)
Clouds: scattered clouds at 200 feet AGL
Weather: MIFG  (shallow fog)
TAF Text: FM231300 14005KT P6SM SKC
Forecast period: 1300 UTC 23 October 2014 to 0000 UTC 24 October 2014
Forecast type: FROM: standard forecast or significant change
Winds: from the SE (140 degrees) at 6 MPH (5 knots; 2.6 m/s)
Visibility: 6 or more miles (10+ km)
Clouds: clear skies
Weather: no significant weather forecast for this period
TAF Text: FM240000 00000KT P6SM BKN250
Forecast period: 0000 to 0800 UTC 24 October 2014
Forecast type: FROM: standard forecast or significant change
Winds: calm
Visibility: 6 or more miles (10+ km)
Ceiling: 25000 feet AGL
Clouds: broken clouds at 25000 feet AGL
Weather: no significant weather forecast for this period
TAF Text: FM240800 00000KT P6SM BKN120
Forecast period: 0800 to 1200 UTC 24 October 2014
Forecast type: FROM: standard forecast or significant change
Winds: calm
Visibility: 6 or more miles (10+ km)
Ceiling: 12000 feet AGL
Clouds: broken clouds at 12000 feet AGL
Weather: no significant weather forecast for this period

Find All Airport Services Find A Hotel Find A Rental Car Find A Golf Course Find A Restaurant $100 Hamburger



FBO's on the Field
FBO Company Facility Photos Services Transportation Aviation Fuel Prices: Prices include tax
Catering Weather Repair Courtesy Rental Type 100LL JetA JetA+ MOGAS 8087
 
Aviation Express Inc.

This FBO has not yet been rated
FS:Shell
Last Updated: Oct-16
Login to update fuel prices
SS:
Contact Aviation Express Inc.More FBO Information
 
Aviation North

This FBO has not yet been rated
FS:Avfuel
Last Updated: Oct-06
Login to update fuel prices
SS:
Contact Aviation NorthMore FBO Information
 
Add another FBO Facility Photos Catering Weather Repair Courtesy Rental Type 100LL JetA JetA+ MOGAS 8087
Services Transportation Aviation Fuel Prices: Prices include tax


model-print
model-print
model-print
model-print